Time;durP1;ratioP1;P1;durP2;ratioP2;P2;SDS_P1;SDS_P2;PMS_P1;PMS_P2;Temp;Humidity;BMP_temperature;BMP_pressure;BME280_temperature;BME280_humidity;BME280_pressure;Samples;Min_cycle;Max_cycle;Signal;HPM_P1;HPM_P2
2022/05/24 00:01:22;;;;;;;5.50;4.00;;;;;;;9.81;73.17;100066.82;84848;1322;22628;-73
2022/05/24 00:03:29;;;;;;;5.30;3.90;;;;;;;9.84;73.19;100063.89;84822;1328;26573;-71
2022/05/24 00:05:38;;;;;;;5.00;4.00;;;;;;;9.86;73.28;100064.55;84876;1328;22589;-71
2022/05/24 00:07:45;;;;;;;4.70;3.90;;;;;;;9.87;73.31;100065.89;84856;1322;24206;-71
2022/05/24 00:09:53;;;;;;;5.30;4.60;;;;;;;9.85;73.38;100066.48;84815;1325;22584;-71
2022/05/24 00:12:00;;;;;;;5.40;4.70;;;;;;;9.83;73.41;100067.27;84819;1325;22577;-73
2022/05/24 00:14:08;;;;;;;5.50;4.80;;;;;;;9.83;73.54;100069.89;84845;1324;22610;-73
2022/05/24 00:16:16;;;;;;;10.90;5.80;;;;;;;9.86;73.43;100070.66;84856;1326;22586;-72
2022/05/24 00:18:27;;;;;;;6.40;5.80;;;;;;;9.90;73.60;100068.77;84820;1327;24393;-72
2022/05/24 00:20:38;;;;;;;6.50;5.00;;;;;;;9.97;73.37;100065.52;84820;1325;22592;-72
2022/05/24 00:22:46;;;;;;;8.60;5.30;;;;;;;10.03;73.36;100060.38;84827;1329;22648;-72
2022/05/24 00:24:55;;;;;;;6.60;5.00;;;;;;;10.07;73.09;100066.10;84833;1327;22619;-72
2022/05/24 00:27:03;;;;;;;7.90;5.50;;;;;;;10.12;73.11;100061.91;84925;1325;22570;-72
2022/05/24 00:29:10;;;;;;;8.40;5.60;;;;;;;10.16;72.94;100060.35;84924;1325;22646;-73
2022/05/24 00:31:18;;;;;;;6.70;5.30;;;;;;;10.19;72.75;100056.91;84888;1324;22708;-73
2022/05/24 00:33:27;;;;;;;9.10;5.20;;;;;;;10.19;72.70;100058.49;84896;1328;24093;-70
2022/05/24 00:35:35;;;;;;;8.10;6.40;;;;;;;10.20;72.72;100059.17;84811;1329;22726;-72
2022/05/24 00:37:43;;;;;;;6.70;5.70;;;;;;;10.20;72.60;100059.69;84895;1325;22705;-72
2022/05/24 00:39:51;;;;;;;7.20;4.90;;;;;;;10.18;72.48;100061.30;84873;1323;22661;-72
2022/05/24 00:42:03;;;;;;;9.00;5.30;;;;;;;10.17;72.38;100056.83;84862;1319;24317;-73
2022/05/24 00:44:15;;;;;;;7.90;5.20;;;;;;;10.15;72.51;100056.92;84845;1325;22612;-73
2022/05/24 00:46:25;;;;;;;7.70;4.40;;;;;;;10.11;72.56;100057.45;84876;1325;22587;-72
2022/05/24 00:48:37;;;;;;;9.80;5.50;;;;;;;10.08;72.60;100054.56;84876;1325;22688;-72
2022/05/24 00:50:45;;;;;;;9.20;5.20;;;;;;;10.10;72.66;100051.91;84871;1326;22584;-72
2022/05/24 00:52:54;;;;;;;9.50;5.30;;;;;;;10.10;72.63;100049.63;84871;1329;22591;-72
2022/05/24 00:55:02;;;;;;;7.80;5.70;;;;;;;10.09;72.64;100046.33;84895;1328;22613;-72
2022/05/24 00:57:11;;;;;;;8.00;5.40;;;;;;;10.09;72.53;100048.09;84862;1326;22635;-73
2022/05/24 00:59:29;;;;;;;6.90;5.20;;;;;;;10.05;72.51;100047.89;84864;1323;22927;-72
2022/05/24 01:01:39;;;;;;;6.80;5.40;;;;;;;10.00;72.65;100047.94;84907;1323;24169;-72
2022/05/24 01:03:46;;;;;;;7.70;5.50;;;;;;;9.98;72.65;100053.79;84895;1319;22667;-73
2022/05/24 01:05:54;;;;;;;11.40;6.00;;;;;;;9.96;72.74;100048.30;84927;1324;23104;-73
2022/05/24 01:08:01;;;;;;;9.70;4.90;;;;;;;9.97;72.70;100049.82;84944;1325;22578;-72
2022/05/24 01:10:11;;;;;;;7.50;5.40;;;;;;;9.97;72.76;100050.84;84847;1329;22743;-72
2022/05/24 01:12:20;;;;;;;;;;;;;;;9.99;72.98;100053.36;84840;1327;22594;-71
2022/05/24 01:14:27;;;;;;;8.00;5.70;;;;;;;10.00;72.82;100052.99;84890;1328;24228;-72
2022/05/24 01:16:35;;;;;;;8.00;6.00;;;;;;;10.01;72.91;100048.95;84871;1329;22581;-73
2022/05/24 01:18:43;;;;;;;7.40;5.90;;;;;;;10.03;72.94;100048.69;84914;1325;22613;-72
2022/05/24 01:21:03;;;;;;;7.30;5.90;;;;;;;10.04;72.69;100046.02;84911;1329;22725;-72
2022/05/24 01:23:28;;;;;;;10.00;6.80;;;;;;;10.02;72.80;100043.69;84872;1327;24352;-72
2022/05/24 01:25:39;;;;;;;8.00;6.10;;;;;;;10.02;72.76;100048.36;84888;1326;25870;-72
2022/05/24 01:27:47;;;;;;;8.50;5.80;;;;;;;10.04;72.68;100047.95;84843;1326;24076;-72
2022/05/24 01:29:54;;;;;;;9.10;5.90;;;;;;;10.05;72.68;100049.99;84875;1322;22611;-72
2022/05/24 01:36:52;;;;;;;5.80;4.80;;;;;;;9.97;72.62;100049.09;84824;1322;24265;-73
2022/05/24 01:39:02;;;;;;;7.10;5.90;;;;;;;9.94;72.76;100043.33;84894;1328;22619;-73
2022/05/24 01:41:10;;;;;;;7.70;6.50;;;;;;;9.91;72.79;100049.52;84867;1329;22582;-72
2022/05/24 01:43:17;;;;;;;9.90;6.60;;;;;;;9.92;72.83;100049.34;84862;1328;22614;-73
2022/05/24 01:45:29;;;;;;;8.00;5.70;;;;;;;9.95;72.78;100050.60;84835;1327;25391;-73
2022/05/24 01:47:38;;;;;;;8.40;5.30;;;;;;;9.96;72.80;100046.90;84934;1328;23972;-73
2022/05/24 01:49:47;;;;;;;6.50;5.80;;;;;;;9.97;73.17;100044.22;84896;1324;25451;-73
2022/05/24 01:51:58;;;;;;;6.60;5.80;;;;;;;10.00;73.04;100041.15;84896;1328;22585;-73
2022/05/24 01:54:07;;;;;;;7.30;5.20;;;;;;;10.02;72.73;100042.63;84902;1325;22738;-73
2022/05/24 01:56:17;;;;;;;6.50;5.80;;;;;;;10.04;72.81;100040.27;84895;1327;22737;-73
2022/05/24 01:58:26;;;;;;;9.10;7.40;;;;;;;10.05;72.62;100041.46;84913;1324;22588;-72
2022/05/24 02:00:34;;;;;;;8.60;6.60;;;;;;;10.05;72.71;100039.74;84897;1322;22617;-72
2022/05/24 02:02:41;;;;;;;6.70;6.00;;;;;;;10.03;72.56;100034.24;84859;1329;22649;-72
2022/05/24 02:04:49;;;;;;;7.70;6.10;;;;;;;9.98;72.63;100029.89;84875;1329;22600;-72
2022/05/24 02:07:05;;;;;;;8.20;6.00;;;;;;;9.96;72.85;100028.25;84933;1328;22687;-72
2022/05/24 02:09:13;;;;;;;7.20;6.10;;;;;;;9.94;72.74;100028.86;84901;1326;22665;-72
2022/05/24 02:11:24;;;;;;;11.40;5.90;;;;;;;9.92;72.90;100032.77;84933;1328;22627;-72
2022/05/24 02:13:34;;;;;;;6.40;5.30;;;;;;;9.90;73.03;100031.10;84898;1324;22596;-72
2022/05/24 02:15:44;;;;;;;6.40;5.80;;;;;;;9.91;72.93;100032.80;84867;1325;22581;-72
2022/05/24 02:17:55;;;;;;;7.40;5.50;;;;;;;9.91;73.00;100032.29;84895;1322;22636;-73
2022/05/24 02:20:04;;;;;;;8.50;5.60;;;;;;;9.90;72.97;100033.20;84848;1325;25317;-72
2022/05/24 02:22:15;;;;;;;14.60;6.30;;;;;;;9.90;72.96;100029.89;84898;1328;26470;-72
2022/05/24 02:24:27;;;;;;;7.80;6.00;;;;;;;9.90;73.35;100027.44;84909;1324;22621;-72
2022/05/24 02:26:35;;;;;;;9.00;6.10;;;;;;;9.91;73.53;100026.20;84857;1325;24280;-72
2022/05/24 02:28:43;;;;;;;6.60;5.70;;;;;;;9.92;73.27;100028.25;84926;1328;26820;-72
2022/05/24 02:30:54;;;;;;;7.80;5.70;;;;;;;9.91;73.41;100028.99;84911;1327;24231;-72
2022/05/24 02:33:01;;;;;;;6.40;5.80;;;;;;;9.92;73.39;100033.45;84870;1321;22642;-73
2022/05/24 02:35:10;;;;;;;9.90;5.90;;;;;;;9.93;73.29;100028.52;84907;1323;24109;-73
2022/05/24 02:37:19;;;;;;;9.00;6.30;;;;;;;9.94;73.10;100030.23;84887;1323;23085;-73
2022/05/24 02:39:27;;;;;;;7.70;6.10;;;;;;;9.95;73.41;100027.77;84905;1322;25664;-73
2022/05/24 02:41:36;;;;;;;7.50;6.10;;;;;;;9.95;73.32;100025.33;84901;1323;22816;-70
2022/05/24 02:43:43;;;;;;;6.70;5.80;;;;;;;9.95;73.02;100022.70;84888;1318;22614;-73
2022/05/24 02:45:50;;;;;;;10.80;6.10;;;;;;;9.96;73.20;100017.27;84892;1324;22630;-72
2022/05/24 02:47:58;;;;;;;9.10;6.20;;;;;;;9.96;73.38;100012.90;84935;1327;25282;-72
2022/05/24 02:50:09;;;;;;;8.50;6.30;;;;;;;9.98;73.43;100007.08;84871;1328;22599;-72
2022/05/24 02:52:18;;;;;;;6.90;6.00;;;;;;;10.00;73.18;100011.70;84896;1327;22606;-72
2022/05/24 02:54:26;;;;;;;11.30;6.20;;;;;;;10.01;73.19;100009.20;84890;1329;24469;-72
2022/05/24 02:56:34;;;;;;;12.30;5.60;;;;;;;10.04;73.30;100009.77;84869;1321;22759;-72
2022/05/24 02:58:41;;;;;;;9.50;6.10;;;;;;;10.08;73.26;100006.31;84865;1325;22615;-72
2022/05/24 03:00:48;;;;;;;9.50;5.30;;;;;;;10.12;73.21;100003.55;84908;1328;24849;-72
2022/05/24 03:02:56;;;;;;;7.60;5.90;;;;;;;10.15;73.37;100000.98;84881;1319;22581;-72
2022/05/24 03:05:06;;;;;;;9.20;5.70;;;;;;;10.18;73.37;100000.32;84932;1324;25393;-72
2022/05/24 03:09:39;;;;;;;8.70;5.90;;;;;;;10.26;73.29;100004.70;84928;1324;24093;-72
2022/05/24 03:14:17;;;;;;;7.50;5.90;;;;;;;10.35;72.96;100004.71;84948;1323;22615;-72
2022/05/24 03:16:24;;;;;;;10.10;6.20;;;;;;;10.38;72.92;100008.06;84943;1320;22584;-72
2022/05/24 03:18:33;;;;;;;26.60;7.60;;;;;;;10.41;72.74;100007.25;84913;1326;24211;-72
2022/05/24 03:20:40;;;;;;;6.40;5.70;;;;;;;10.44;72.75;100006.02;84910;1323;26843;-72
2022/05/24 03:22:49;;;;;;;6.60;5.70;;;;;;;10.49;72.84;100005.48;84944;1325;22606;-72
2022/05/24 03:25:01;;;;;;;7.90;5.50;;;;;;;10.53;72.65;100006.48;84893;1322;22646;-72
2022/05/24 03:27:11;;;;;;;8.40;6.30;;;;;;;10.61;72.66;99996.77;84890;1325;25552;-73
2022/05/24 03:29:19;;;;;;;8.90;6.50;;;;;;;10.68;72.65;99999.59;84905;1324;22640;-73
2022/05/24 03:31:26;;;;;;;7.30;6.20;;;;;;;10.77;72.63;100002.34;84839;1327;22751;-73
2022/05/24 03:33:34;;;;;;;9.00;6.10;;;;;;;10.84;72.43;99996.93;84864;1329;22611;-72
2022/05/24 03:35:41;;;;;;;8.00;6.50;;;;;;;10.93;72.43;99998.64;84885;1329;23920;-72
2022/05/24 03:37:49;;;;;;;8.00;6.10;;;;;;;11.09;72.26;99997.38;84904;1326;22589;-72
2022/05/24 03:39:56;;;;;;;8.40;6.40;;;;;;;11.76;72.81;100001.20;84900;1326;22602;-72
2022/05/24 03:42:04;;;;;;;6.80;6.00;;;;;;;12.66;71.79;99998.23;84919;1324;25385;-72
2022/05/24 03:44:12;;;;;;;7.70;5.70;;;;;;;13.53;70.22;99990.34;84907;1326;22926;-71
2022/05/24 03:46:19;;;;;;;11.90;6.30;;;;;;;14.40;69.28;99989.70;84949;1325;22602;-71
2022/05/24 03:48:27;;;;;;;6.60;5.50;;;;;;;15.24;67.17;99986.30;84948;1325;22587;-71
2022/05/24 03:50:36;;;;;;;8.60;6.00;;;;;;;16.03;64.48;99987.00;84912;1326;25816;-71
2022/05/24 03:52:44;;;;;;;6.70;5.90;;;;;;;16.73;62.91;99982.19;84944;1325;22597;-71
2022/05/24 03:54:52;;;;;;;6.80;5.50;;;;;;;17.50;60.90;99976.67;84937;1327;22757;-72
2022/05/24 03:59:24;;;;;;;5.80;4.60;;;;;;;19.05;56.09;99969.05;84907;1327;25452;-72
2022/05/24 04:01:32;;;;;;;7.80;5.10;;;;;;;19.71;53.81;99973.73;84918;1324;22736;-72
2022/05/24 04:03:39;;;;;;;7.30;4.70;;;;;;;20.14;52.05;99970.92;84895;1318;22581;-72
2022/05/24 04:05:47;;;;;;;5.60;4.80;;;;;;;20.59;50.86;99978.09;84930;1323;23898;-72
2022/05/24 04:07:55;;;;;;;7.50;5.00;;;;;;;21.18;49.21;99973.92;84884;1328;23904;-72
2022/05/24 04:10:07;;;;;;;7.80;5.20;;;;;;;21.64;46.19;99967.40;84892;1325;24115;-72
2022/05/24 04:12:17;;;;;;;6.60;4.90;;;;;;;21.87;46.63;99965.61;84906;1325;23062;-72
2022/05/24 04:14:24;;;;;;;5.60;4.90;;;;;;;22.42;45.69;99964.47;84898;1328;24081;-72
2022/05/24 04:16:32;;;;;;;6.00;5.10;;;;;;;22.92;43.87;99962.36;84953;1329;22591;-72
2022/05/24 04:18:40;;;;;;;4.30;3.90;;;;;;;23.15;43.22;99966.36;84923;1325;22645;-73
2022/05/24 04:20:48;;;;;;;6.30;4.60;;;;;;;22.84;41.52;99971.51;84907;1325;22655;-73
2022/05/24 04:22:56;;;;;;;5.50;4.90;;;;;;;22.06;42.13;99972.83;84853;1326;22831;-73
2022/05/24 04:25:04;;;;;;;7.80;4.80;;;;;;;21.31;42.52;99978.67;84890;1324;22584;-72
2022/05/24 04:27:11;;;;;;;6.40;4.90;;;;;;;20.62;43.06;99983.98;84701;1326;200274;-72
2022/05/24 04:29:19;;;;;;;7.80;4.00;;;;;;;20.05;44.66;99983.33;84853;1325;22796;-72
2022/05/24 04:31:27;;;;;;;5.80;4.50;;;;;;;19.60;45.20;99979.80;84891;1326;24205;-72
2022/05/24 04:33:34;;;;;;;4.80;4.40;;;;;;;19.12;46.03;99974.48;84853;1325;22951;-72
2022/05/24 04:35:42;;;;;;;7.50;4.70;;;;;;;18.83;46.88;99973.07;84905;1325;25297;-71
2022/05/24 04:37:50;;;;;;;5.90;4.50;;;;;;;18.62;47.55;99976.29;84903;1323;22578;-73
2022/05/24 04:40:01;;;;;;;;;;;;;;;18.54;48.03;99978.82;84904;1324;22586;-73
2022/05/24 04:42:22;;;;;;;6.10;4.70;;;;;;;18.58;48.19;99978.17;84807;1326;24114;-72
2022/05/24 04:44:32;;;;;;;5.00;4.60;;;;;;;18.59;48.33;99976.85;84850;1319;22596;-72
2022/05/24 04:49:05;;;;;;;8.10;4.80;;;;;;;19.99;47.83;99973.03;84805;1326;25287;-72
2022/05/24 04:51:13;;;;;;;7.90;4.70;;;;;;;20.95;47.57;99974.19;84784;1318;24290;-72
2022/05/24 04:53:21;;;;;;;5.20;4.70;;;;;;;21.98;45.39;99972.30;84836;1322;22628;-72
2022/05/24 04:55:29;;;;;;;5.10;4.60;;;;;;;22.89;44.28;99971.98;84880;1327;22636;-72
2022/05/24 04:57:36;;;;;;;5.50;3.80;;;;;;;23.78;42.28;99970.02;84847;1326;23965;-72
2022/05/24 04:59:44;;;;;;;6.60;4.50;;;;;;;24.36;39.51;99970.70;84868;1325;22727;-73
2022/05/24 05:01:51;;;;;;;7.40;4.00;;;;;;;24.84;38.76;99969.27;84836;1327;22623;-72
2022/05/24 05:03:59;;;;;;;6.70;3.90;;;;;;;25.42;37.93;99969.01;84798;1327;22653;-72
2022/05/24 05:06:11;;;;;;;5.30;4.50;;;;;;;26.05;36.35;99964.31;84827;1329;24132;-72
2022/05/24 05:08:19;;;;;;;3.90;3.50;;;;;;;26.40;34.44;99966.01;84817;1325;22591;-72
2022/05/24 05:10:29;;;;;;;4.80;3.80;;;;;;;26.55;34.57;99968.70;84831;1325;22679;-72
2022/05/24 05:12:37;;;;;;;5.30;3.60;;;;;;;26.75;33.66;99968.43;84779;1322;24207;-72
2022/05/24 05:14:49;;;;;;;12.30;4.00;;;;;;;27.08;33.60;99969.32;84753;1321;25629;-71
2022/05/24 05:16:59;;;;;;;4.00;3.70;;;;;;;27.53;32.40;99968.23;84842;1324;22838;-71
2022/05/24 05:19:07;;;;;;;3.70;3.40;;;;;;;27.64;31.88;99964.98;84809;1322;24240;-71
2022/05/24 05:21:15;;;;;;;5.80;3.50;;;;;;;27.85;31.46;99971.19;84798;1327;24171;-72
2022/05/24 05:23:22;;;;;;;4.00;3.60;;;;;;;28.34;31.40;99969.70;84792;1326;24231;-72
2022/05/24 05:25:29;;;;;;;5.00;4.10;;;;;;;28.70;29.95;99976.65;84838;1321;22613;-71
2022/05/24 05:27:37;;;;;;;3.70;3.30;;;;;;;28.92;29.84;99975.10;84736;1325;24332;-72
2022/05/24 05:32:16;;;;;;;5.10;3.40;;;;;;;29.70;28.97;99972.15;84647;1331;22592;-72
2022/05/24 05:34:24;;;;;;;4.30;3.20;;;;;;;30.05;27.95;99970.98;84789;1325;25355;-74
2022/05/24 05:36:32;;;;;;;4.00;3.30;;;;;;;29.99;27.11;99972.27;84844;1329;22593;-73
2022/05/24 05:38:47;;;;;;;5.10;3.60;;;;;;;29.89;26.86;99967.95;84826;1326;22759;-73
2022/05/24 05:41:00;;;;;;;5.70;3.50;;;;;;;29.86;27.17;99966.39;84672;1330;22593;-74
2022/05/24 05:43:18;;;;;;;8.30;3.90;;;;;;;29.99;26.30;99964.02;84765;1328;22623;-74
2022/05/24 05:45:26;;;;;;;4.30;3.50;;;;;;;29.94;26.15;99962.98;84842;1321;22608;-74
2022/05/24 05:47:38;;;;;;;4.70;3.00;;;;;;;29.93;27.08;99959.70;84825;1327;22577;-74
2022/05/24 05:49:49;;;;;;;5.10;3.30;;;;;;;30.19;26.46;99960.80;84790;1325;25381;-74
2022/05/24 05:51:57;;;;;;;3.50;3.10;;;;;;;30.52;25.99;99964.08;84787;1327;24263;-74
2022/05/24 05:54:05;;;;;;;3.40;3.10;;;;;;;30.68;25.20;99961.48;84805;1321;24226;-74
2022/05/24 05:56:21;;;;;;;5.60;3.20;;;;;;;30.82;25.06;99962.50;84805;1322;22590;-74
2022/05/24 05:58:37;;;;;;;10.60;3.40;;;;;;;30.80;24.61;99959.71;84808;1327;22719;-73
2022/05/24 06:00:49;;;;;;;6.00;3.20;;;;;;;30.87;24.83;99954.89;84761;1326;22595;-74
2022/05/24 06:02:59;;;;;;;6.70;3.30;;;;;;;30.86;24.07;99956.40;84840;1322;22652;-74
2022/05/24 06:05:14;;;;;;;5.10;2.70;;;;;;;30.77;23.97;99951.67;84727;1328;22615;-74
2022/05/24 06:07:23;;;;;;;5.00;3.70;;;;;;;30.98;24.68;99949.82;84896;1327;22601;-74
2022/05/24 06:09:37;;;;;;;3.90;3.20;;;;;;;31.21;23.91;99945.71;84826;1324;26669;-74
2022/05/24 06:11:48;;;;;;;4.70;2.80;;;;;;;31.42;23.30;99943.41;84781;1324;22581;-74
2022/05/24 06:14:02;;;;;;;3.30;3.00;;;;;;;31.27;22.91;99945.33;84798;1327;22591;-75
2022/05/24 06:16:11;;;;;;;6.10;2.40;;;;;;;30.91;23.49;99945.70;84703;1323;22590;-74
2022/05/24 06:18:20;;;;;;;6.40;2.80;;;;;;;30.67;23.53;99948.30;84881;1325;22603;-74
2022/05/24 06:20:28;;;;;;;;;;;;;;;30.35;23.89;99955.69;84817;1326;22570;-74
2022/05/24 06:22:40;;;;;;;4.00;2.60;;;;;;;30.05;24.04;99958.51;84810;1324;22606;-74
2022/05/24 06:24:48;;;;;;;3.50;2.70;;;;;;;30.31;24.21;99953.70;84787;1326;22723;-74
2022/05/24 06:26:56;;;;;;;4.80;3.10;;;;;;;30.68;24.26;99957.47;84776;1325;25436;-74
2022/05/24 06:29:07;;;;;;;8.30;2.80;;;;;;;30.72;22.65;99960.77;84775;1326;22613;-74
2022/05/24 06:31:16;;;;;;;3.10;2.80;;;;;;;30.25;23.58;99959.40;84806;1326;23895;-74
2022/05/24 06:33:27;;;;;;;4.20;3.40;;;;;;;30.38;23.53;99967.92;84802;1325;22595;-74
2022/05/24 06:35:37;;;;;;;4.40;2.80;;;;;;;30.48;24.31;99960.31;84816;1325;22592;-74
2022/05/24 06:37:49;;;;;;;10.90;3.10;;;;;;;30.90;23.65;99960.34;84706;1325;22589;-74
2022/05/24 06:39:57;;;;;;;4.70;3.00;;;;;;;31.11;22.99;99964.38;84798;1325;25447;-74
2022/05/24 06:42:08;;;;;;;3.80;2.30;;;;;;;31.26;23.26;99959.00;84816;1325;22581;-74
2022/05/24 06:44:15;;;;;;;3.10;2.80;;;;;;;31.35;22.22;99962.54;84841;1327;22613;-74
2022/05/24 06:46:23;;;;;;;6.10;2.30;;;;;;;31.27;22.57;99959.15;84830;1323;22649;-74
2022/05/24 06:48:31;;;;;;;5.20;2.50;;;;;;;31.24;22.71;99957.86;84808;1329;22627;-74
2022/05/24 06:50:38;;;;;;;3.40;2.40;;;;;;;31.41;23.17;99955.70;84825;1326;22613;-74
2022/05/24 06:52:46;;;;;;;4.50;2.30;;;;;;;31.70;23.13;99950.52;84831;1327;22586;-74
2022/05/24 06:54:54;;;;;;;2.40;2.00;;;;;;;32.04;22.86;99953.70;84831;1325;25248;-73
2022/05/24 06:57:02;;;;;;;5.00;2.50;;;;;;;32.31;21.89;99948.19;84820;1325;24290;-74
2022/05/24 07:03:59;;;;;;;6.00;2.20;;;;;;;32.55;21.03;99951.73;84829;1325;22581;-73
2022/05/24 07:06:07;;;;;;;3.80;1.90;;;;;;;32.51;21.14;99948.98;84836;1322;22598;-73
2022/05/24 07:08:15;;;;;;;4.90;2.30;;;;;;;32.54;21.13;99943.43;84845;1327;22624;-73
2022/05/24 07:10:23;;;;;;;5.10;2.10;;;;;;;32.51;21.01;99937.85;84827;1325;22966;-74
2022/05/24 07:12:31;;;;;;;3.30;2.20;;;;;;;32.54;21.41;99937.67;84818;1328;22834;-74
2022/05/24 07:14:38;;;;;;;4.40;2.10;;;;;;;32.75;20.79;99938.65;84789;1329;26603;-74
2022/05/24 07:16:46;;;;;;;2.30;2.00;;;;;;;32.78;20.63;99935.23;84762;1329;24152;-74
2022/05/24 07:18:53;;;;;;;3.60;2.00;;;;;;;32.54;20.37;99928.29;84807;1328;23939;-74
2022/05/24 07:21:01;;;;;;;2.90;2.10;;;;;;;32.53;20.98;99927.77;84844;1325;22615;-74
2022/05/24 07:23:15;;;;;;;3.30;2.10;;;;;;;32.83;20.92;99924.51;84834;1325;22577;-74
2022/05/24 07:25:23;;;;;;;2.40;1.60;;;;;;;33.12;20.70;99926.11;84835;1329;24113;-72
2022/05/24 07:27:30;;;;;;;4.60;1.90;;;;;;;33.30;19.86;99931.56;84803;1321;22837;-72
2022/05/24 07:29:37;;;;;;;2.70;1.70;;;;;;;33.20;19.58;99927.28;84817;1327;25589;-72
2022/05/24 07:31:45;;;;;;;5.60;2.00;;;;;;;32.93;19.76;99926.56;84737;1327;24228;-72
2022/05/24 07:33:52;;;;;;;5.80;1.90;;;;;;;32.73;19.95;99935.66;84823;1322;22959;-72
2022/05/24 07:35:59;;;;;;;3.70;1.50;;;;;;;32.45;19.88;99929.27;84802;1325;26801;-72
2022/05/24 07:38:09;;;;;;;7.60;1.80;;;;;;;32.25;20.51;99927.20;84777;1327;24139;-72
2022/05/24 07:47:36;;;;;;;4.40;1.70;;;;;;;31.29;20.72;99923.29;84842;1325;22592;-74
2022/05/24 07:49:44;;;;;;;2.00;1.70;;;;;;;31.01;21.14;99928.54;84803;1321;25479;-74
2022/05/24 07:51:51;;;;;;;3.20;2.50;;;;;;;31.03;21.33;99932.96;84843;1329;23895;-74
2022/05/24 07:54:02;;;;;;;4.90;2.20;;;;;;;31.23;21.16;99930.83;84777;1327;22885;-74
2022/05/24 07:56:25;;;;;;;10.20;1.60;;;;;;;31.25;20.75;99932.26;84751;1328;22683;-74
2022/05/24 07:58:33;;;;;;;1.70;1.30;;;;;;;31.21;20.52;99927.73;84788;1326;24412;-74
2022/05/24 08:00:41;;;;;;;2.10;1.40;;;;;;;31.33;20.86;99933.88;84786;1330;22581;-74
2022/05/24 08:02:51;;;;;;;5.00;1.50;;;;;;;31.60;20.58;99935.48;84804;1329;23969;-74
2022/05/24 08:04:58;;;;;;;2.60;1.50;;;;;;;31.48;20.28;99931.09;84848;1325;26458;-72
2022/05/24 08:07:06;;;;;;;3.10;1.60;;;;;;;30.96;20.75;99931.10;84827;1329;22602;-73
2022/05/24 08:09:13;;;;;;;3.50;2.20;;;;;;;30.66;21.32;99933.85;84847;1322;22577;-73
2022/05/24 08:11:21;;;;;;;3.80;1.80;;;;;;;30.30;21.32;99939.91;84832;1326;22589;-73
2022/05/24 08:13:28;;;;;;;4.90;1.80;;;;;;;30.16;22.13;99935.45;84798;1318;22576;-73
2022/05/24 08:15:36;;;;;;;4.00;1.40;;;;;;;30.39;21.81;99935.71;84847;1329;22600;-73
2022/05/24 08:17:46;;;;;;;4.80;1.90;;;;;;;30.78;22.09;99932.46;84842;1329;22579;-73
2022/05/24 08:19:53;;;;;;;1.50;1.40;;;;;;;31.37;21.40;99933.39;84839;1326;22590;-72
2022/05/24 08:22:01;;;;;;;10.20;2.10;;;;;;;31.57;20.87;99927.65;84798;1329;22594;-72
2022/05/24 08:24:10;;;;;;;4.70;1.80;;;;;;;31.49;20.31;99931.80;84808;1322;22603;-72
2022/05/24 08:26:17;;;;;;;5.00;1.50;;;;;;;31.36;20.81;99935.18;84805;1327;22692;-72
2022/05/24 08:28:25;;;;;;;3.80;1.70;;;;;;;31.24;20.35;99940.13;84794;1325;23991;-72
2022/05/24 08:30:34;;;;;;;3.50;1.60;;;;;;;30.89;20.24;99942.13;84816;1327;26608;-72
2022/05/24 08:32:42;;;;;;;7.20;1.40;;;;;;;30.63;20.93;99941.64;84812;1327;22590;-72
2022/05/24 08:34:49;;;;;;;3.70;1.70;;;;;;;30.36;21.13;99941.74;84820;1325;23853;-72
2022/05/24 08:36:57;;;;;;;8.90;3.20;;;;;;;30.05;21.26;99940.92;84844;1329;22954;-72
2022/05/24 08:39:04;;;;;;;9.00;2.10;;;;;;;29.79;21.14;99945.36;84808;1323;25528;-73
2022/05/24 08:41:15;;;;;;;3.90;1.80;;;;;;;29.32;21.45;99944.73;84805;1326;22584;-72
2022/05/24 08:48:22;;;;;;;6.50;1.90;;;;;;;29.00;22.21;99944.46;84816;1323;22588;-73
2022/05/24 08:49:04;;;;;;;7.00;1.90;;;;;;;28.69;22.45;99949.33;84811;1329;22606;-72
2022/05/24 08:51:17;;;;;;;3.10;1.80;;;;;;;28.43;22.65;99951.77;84848;1327;22598;-73
2022/05/24 08:53:33;;;;;;;4.00;2.00;;;;;;;28.29;22.69;99949.64;84848;1328;22590;-72
2022/05/24 08:55:42;;;;;;;2.90;1.70;;;;;;;28.22;23.44;99944.23;84833;1325;25453;-72
2022/05/24 08:57:52;;;;;;;8.50;1.70;;;;;;;28.22;23.52;99943.29;84822;1327;24013;-72
2022/05/24 09:00:01;;;;;;;3.50;1.70;;;;;;;28.19;23.50;99942.95;84833;1327;22830;-72
2022/05/24 09:02:09;;;;;;;4.60;1.50;;;;;;;28.18;23.08;99942.41;84854;1325;22665;-72
2022/05/24 09:04:16;;;;;;;2.20;1.70;;;;;;;27.90;23.40;99945.70;84801;1329;22707;-72
2022/05/24 09:06:38;;;;;;;3.10;1.80;;;;;;;27.79;23.73;99939.49;84832;1325;22587;-72
2022/05/24 09:08:55;;;;;;;7.70;1.50;;;;;;;27.90;23.76;99935.08;84822;1318;24233;-72
2022/05/24 09:11:09;;;;;;;3.10;1.50;;;;;;;28.01;23.59;99933.23;84827;1325;25298;-72
2022/05/24 09:13:36;;;;;;;3.40;1.70;;;;;;;27.99;23.64;99933.54;84842;1325;22587;-72
2022/05/24 09:15:49;;;;;;;5.10;1.90;;;;;;;27.71;23.41;99932.09;84824;1325;24244;-73
2022/05/24 09:18:11;;;;;;;5.70;2.20;;;;;;;27.35;24.04;99925.91;84811;1326;26688;-73
2022/05/24 09:20:33;;;;;;;4.80;2.40;;;;;;;27.23;24.57;99920.97;84826;1323;22574;-73
2022/05/24 09:22:40;;;;;;;6.80;2.50;;;;;;;27.05;24.70;99923.58;84835;1329;26633;-72
2022/05/24 09:24:50;;;;;;;5.60;2.10;;;;;;;26.83;25.19;99921.55;84820;1329;24256;-72
2022/05/24 09:27:16;;;;;;;3.20;2.40;;;;;;;26.71;25.29;99923.95;84794;1327;22585;-72
2022/05/24 09:29:23;;;;;;;2.60;1.80;;;;;;;26.24;25.80;99918.09;84831;1326;25436;-72
2022/05/24 09:31:34;;;;;;;6.40;1.70;;;;;;;26.00;26.37;99916.63;84813;1328;25441;-72
2022/05/24 09:33:44;;;;;;;4.20;2.20;;;;;;;25.90;26.56;99912.95;84827;1322;22608;-72
2022/05/24 09:35:53;;;;;;;5.50;1.50;;;;;;;25.83;26.65;99910.06;84813;1325;22584;-72
2022/05/24 09:38:13;;;;;;;3.40;1.70;;;;;;;25.80;26.96;99906.14;84833;1319;24223;-72
2022/05/24 09:40:23;;;;;;;2.70;1.90;;;;;;;25.87;27.31;99899.64;84809;1327;24219;-72
2022/05/24 09:42:33;;;;;;;4.20;1.80;;;;;;;26.07;27.46;99902.61;84804;1322;22826;-72
2022/05/24 09:44:50;;;;;;;2.90;1.70;;;;;;;26.20;26.65;99903.15;84824;1325;26652;-72
2022/05/24 09:46:57;;;;;;;2.80;2.20;;;;;;;26.17;26.52;99902.70;84849;1325;22676;-73
2022/05/24 09:49:21;;;;;;;2.90;1.90;;;;;;;26.13;26.36;99898.21;84837;1324;22596;-72
2022/05/24 09:51:31;;;;;;;4.60;1.80;;;;;;;25.93;26.49;99899.68;84827;1325;22731;-72
2022/05/24 09:53:49;;;;;;;2.50;2.00;;;;;;;25.66;26.76;99899.98;84848;1325;22603;-72
2022/05/24 09:55:59;;;;;;;14.70;3.60;;;;;;;25.41;27.20;99900.52;84816;1329;25301;-71
2022/05/24 09:58:27;;;;;;;4.80;2.00;;;;;;;25.10;26.93;99909.42;84802;1323;22584;-72
2022/05/24 10:00:37;;;;;;;8.00;1.90;;;;;;;24.64;27.53;99906.69;84837;1326;23906;-72
2022/05/24 10:02:45;;;;;;;4.10;1.40;;;;;;;24.43;27.95;99910.35;84738;1328;22580;-72
2022/05/24 10:04:52;;;;;;;7.60;2.40;;;;;;;24.33;28.56;99913.65;84836;1327;24434;-72
2022/05/24 10:07:02;;;;;;;11.50;2.20;;;;;;;24.24;28.50;99911.21;84865;1325;22579;-70
2022/05/24 10:09:30;;;;;;;16.50;14.90;;;;;;;24.16;28.18;99913.63;84841;1329;22600;-72
2022/05/24 10:11:42;;;;;;;5.50;2.20;;;;;;;24.01;28.49;99912.06;84831;1326;22597;-72
2022/05/24 10:13:56;;;;;;;3.50;1.40;;;;;;;23.80;28.81;99908.92;84826;1328;22629;-72
2022/05/24 10:16:08;;;;;;;3.60;1.50;;;;;;;23.77;29.53;99905.15;84829;1327;22588;-73
2022/05/24 10:18:32;;;;;;;7.30;3.60;;;;;;;23.78;29.58;99900.95;84811;1325;22712;-72
2022/05/24 10:20:47;;;;;;;2.00;1.60;;;;;;;23.83;29.98;99900.80;84806;1328;23940;-72
2022/05/24 10:23:00;;;;;;;6.10;1.50;;;;;;;23.91;30.19;99903.86;84797;1323;22685;-72
2022/05/24 10:25:13;;;;;;;1.70;1.60;;;;;;;23.92;29.92;99901.83;84840;1325;22687;-72
2022/05/24 10:27:26;;;;;;;2.30;2.10;;;;;;;23.79;29.99;99900.06;84782;1322;22776;-72
2022/05/24 10:29:49;;;;;;;1.90;1.70;;;;;;;23.79;30.25;99899.92;84851;1327;22730;-72
2022/05/24 10:32:00;;;;;;;3.60;1.40;;;;;;;23.77;29.67;99902.85;84842;1328;22651;-73
2022/05/24 10:39:32;;;;;;;5.10;1.20;;;;;;;23.49;29.43;99893.30;84811;1329;22597;-72
2022/05/24 10:41:52;;;;;;;4.60;1.40;;;;;;;23.33;29.39;99894.00;84816;1325;22594;-72
2022/05/24 10:44:05;;;;;;;4.10;1.70;;;;;;;23.21;29.57;99888.74;84812;1325;22594;-72
2022/05/24 10:46:16;;;;;;;5.00;1.70;;;;;;;23.17;29.72;99887.70;84839;1321;22607;-73
2022/05/24 10:48:33;;;;;;;5.80;1.80;;;;;;;23.18;29.58;99894.02;84833;1329;22649;-73